sensor_id;sensor_type;location;lat;lon;timestamp;P1;durP1;ratioP1;P2;durP2;ratioP2
7531;SDS011;3807;49.030;8.714;2023-03-23T00:01:11;1.87;;;1.20;;
7531;SDS011;3807;49.030;8.714;2023-03-23T00:03:39;1.20;;;1.07;;
7531;SDS011;3807;49.030;8.714;2023-03-23T00:06:05;2.53;;;1.23;;
7531;SDS011;3807;49.030;8.714;2023-03-23T00:08:35;2.43;;;1.20;;
7531;SDS011;3807;49.030;8.714;2023-03-23T00:11:03;1.40;;;1.10;;
7531;SDS011;3807;49.030;8.714;2023-03-23T00:13:29;1.13;;;0.90;;
7531;SDS011;3807;49.030;8.714;2023-03-23T00:15:55;2.40;;;1.10;;
7531;SDS011;3807;49.030;8.714;2023-03-23T00:18:22;2.30;;;0.90;;
7531;SDS011;3807;49.030;8.714;2023-03-23T00:20:52;1.60;;;1.20;;
7531;SDS011;3807;49.030;8.714;2023-03-23T00:23:22;1.87;;;0.93;;
7531;SDS011;3807;49.030;8.714;2023-03-23T00:25:53;2.33;;;1.17;;
7531;SDS011;3807;49.030;8.714;2023-03-23T00:28:23;2.00;;;1.23;;
7531;SDS011;3807;49.030;8.714;2023-03-23T00:33:29;2.17;;;1.13;;
7531;SDS011;3807;49.030;8.714;2023-03-23T00:36:03;1.37;;;1.10;;
7531;SDS011;3807;49.030;8.714;2023-03-23T00:38:30;1.20;;;1.10;;
7531;SDS011;3807;49.030;8.714;2023-03-23T00:40:56;4.10;;;1.60;;
7531;SDS011;3807;49.030;8.714;2023-03-23T00:43:22;1.10;;;0.90;;
7531;SDS011;3807;49.030;8.714;2023-03-23T00:45:49;0.80;;;0.80;;
7531;SDS011;3807;49.030;8.714;2023-03-23T00:48:21;1.53;;;0.90;;
7531;SDS011;3807;49.030;8.714;2023-03-23T00:50:49;2.47;;;0.90;;
7531;SDS011;3807;49.030;8.714;2023-03-23T00:53:16;1.27;;;1.00;;
7531;SDS011;3807;49.030;8.714;2023-03-23T00:55:42;1.83;;;1.23;;
7531;SDS011;3807;49.030;8.714;2023-03-23T00:58:09;2.10;;;1.20;;
7531;SDS011;3807;49.030;8.714;2023-03-23T01:00:35;1.67;;;1.07;;
7531;SDS011;3807;49.030;8.714;2023-03-23T01:03:01;2.37;;;1.27;;
7531;SDS011;3807;49.030;8.714;2023-03-23T01:05:26;2.13;;;1.20;;
7531;SDS011;3807;49.030;8.714;2023-03-23T01:07:57;1.53;;;1.07;;
7531;SDS011;3807;49.030;8.714;2023-03-23T01:10:23;2.17;;;1.20;;
7531;SDS011;3807;49.030;8.714;2023-03-23T01:12:49;2.07;;;1.07;;
7531;SDS011;3807;49.030;8.714;2023-03-23T01:15:16;1.60;;;1.10;;
7531;SDS011;3807;49.030;8.714;2023-03-23T01:17:43;1.33;;;1.20;;
7531;SDS011;3807;49.030;8.714;2023-03-23T01:20:09;3.23;;;1.17;;
7531;SDS011;3807;49.030;8.714;2023-03-23T01:22:36;2.23;;;1.20;;
7531;SDS011;3807;49.030;8.714;2023-03-23T01:25:01;1.67;;;1.00;;
7531;SDS011;3807;49.030;8.714;2023-03-23T01:27:27;2.70;;;1.37;;
7531;SDS011;3807;49.030;8.714;2023-03-23T01:29:52;1.20;;;1.10;;
7531;SDS011;3807;49.030;8.714;2023-03-23T01:32:18;1.73;;;1.30;;
7531;SDS011;3807;49.030;8.714;2023-03-23T01:34:43;3.00;;;1.30;;
7531;SDS011;3807;49.030;8.714;2023-03-23T01:37:08;1.73;;;1.17;;
7531;SDS011;3807;49.030;8.714;2023-03-23T01:39:35;2.30;;;1.00;;
7531;SDS011;3807;49.030;8.714;2023-03-23T01:42:01;2.03;;;1.27;;
7531;SDS011;3807;49.030;8.714;2023-03-23T01:46:55;3.33;;;1.50;;
7531;SDS011;3807;49.030;8.714;2023-03-23T01:49:23;2.73;;;1.27;;
7531;SDS011;3807;49.030;8.714;2023-03-23T01:51:53;1.20;;;1.07;;
7531;SDS011;3807;49.030;8.714;2023-03-23T01:54:22;2.17;;;1.50;;
7531;SDS011;3807;49.030;8.714;2023-03-23T01:56:54;1.30;;;1.20;;
7531;SDS011;3807;49.030;8.714;2023-03-23T01:59:23;3.23;;;1.20;;
7531;SDS011;3807;49.030;8.714;2023-03-23T02:01:52;1.33;;;1.10;;
7531;SDS011;3807;49.030;8.714;2023-03-23T02:04:19;1.37;;;1.10;;
7531;SDS011;3807;49.030;8.714;2023-03-23T02:06:47;1.90;;;1.20;;
7531;SDS011;3807;49.030;8.714;2023-03-23T02:09:13;1.30;;;1.10;;
7531;SDS011;3807;49.030;8.714;2023-03-23T02:11:39;2.43;;;1.43;;
7531;SDS011;3807;49.030;8.714;2023-03-23T02:14:05;1.93;;;1.27;;
7531;SDS011;3807;49.030;8.714;2023-03-23T02:25:03;2.97;;;1.27;;
7531;SDS011;3807;49.030;8.714;2023-03-23T02:33:32;1.37;;;1.20;;
7531;SDS011;3807;49.030;8.714;2023-03-23T02:41:22;2.60;;;1.47;;
7531;SDS011;3807;49.030;8.714;2023-03-23T02:43:50;2.30;;;1.40;;
7531;SDS011;3807;49.030;8.714;2023-03-23T02:46:18;1.43;;;1.33;;
7531;SDS011;3807;49.030;8.714;2023-03-23T02:48:45;1.60;;;1.07;;
7531;SDS011;3807;49.030;8.714;2023-03-23T02:51:13;1.40;;;1.20;;
7531;SDS011;3807;49.030;8.714;2023-03-23T02:53:41;1.60;;;1.30;;
7531;SDS011;3807;49.030;8.714;2023-03-23T02:56:08;1.77;;;1.10;;
7531;SDS011;3807;49.030;8.714;2023-03-23T02:58:36;2.20;;;1.23;;
7531;SDS011;3807;49.030;8.714;2023-03-23T03:04:05;1.63;;;1.33;;
7531;SDS011;3807;49.030;8.714;2023-03-23T03:06:41;2.13;;;1.30;;
7531;SDS011;3807;49.030;8.714;2023-03-23T03:11:39;1.73;;;1.40;;
7531;SDS011;3807;49.030;8.714;2023-03-23T03:14:13;1.30;;;1.20;;
7531;SDS011;3807;49.030;8.714;2023-03-23T03:16:49;1.30;;;1.20;;
7531;SDS011;3807;49.030;8.714;2023-03-23T03:19:35;2.50;;;1.47;;
7531;SDS011;3807;49.030;8.714;2023-03-23T03:22:05;1.70;;;1.60;;
7531;SDS011;3807;49.030;8.714;2023-03-23T03:24:32;1.80;;;1.40;;
7531;SDS011;3807;49.030;8.714;2023-03-23T03:26:59;2.40;;;1.40;;
7531;SDS011;3807;49.030;8.714;2023-03-23T03:29:29;1.97;;;1.30;;
7531;SDS011;3807;49.030;8.714;2023-03-23T03:31:57;3.13;;;1.50;;
7531;SDS011;3807;49.030;8.714;2023-03-23T03:34:25;1.53;;;1.40;;
7531;SDS011;3807;49.030;8.714;2023-03-23T03:36:51;2.27;;;1.40;;
7531;SDS011;3807;49.030;8.714;2023-03-23T03:39:19;2.23;;;1.50;;
7531;SDS011;3807;49.030;8.714;2023-03-23T03:41:46;1.57;;;1.37;;
7531;SDS011;3807;49.030;8.714;2023-03-23T03:44:13;1.67;;;1.13;;
7531;SDS011;3807;49.030;8.714;2023-03-23T03:46:38;1.47;;;1.10;;
7531;SDS011;3807;49.030;8.714;2023-03-23T03:49:05;2.17;;;1.37;;
7531;SDS011;3807;49.030;8.714;2023-03-23T03:51:32;1.50;;;1.40;;
7531;SDS011;3807;49.030;8.714;2023-03-23T03:54:00;2.57;;;1.63;;
7531;SDS011;3807;49.030;8.714;2023-03-23T03:56:25;3.13;;;1.40;;
7531;SDS011;3807;49.030;8.714;2023-03-23T03:58:51;1.67;;;1.20;;
7531;SDS011;3807;49.030;8.714;2023-03-23T04:01:17;1.40;;;1.30;;
7531;SDS011;3807;49.030;8.714;2023-03-23T04:03:47;1.43;;;1.20;;
7531;SDS011;3807;49.030;8.714;2023-03-23T04:06:13;1.33;;;1.23;;
7531;SDS011;3807;49.030;8.714;2023-03-23T04:08:38;2.03;;;1.30;;
7531;SDS011;3807;49.030;8.714;2023-03-23T04:11:06;2.00;;;1.47;;
7531;SDS011;3807;49.030;8.714;2023-03-23T04:13:36;1.93;;;1.30;;
7531;SDS011;3807;49.030;8.714;2023-03-23T04:16:01;1.80;;;1.27;;
7531;SDS011;3807;49.030;8.714;2023-03-23T04:18:27;3.23;;;1.40;;
7531;SDS011;3807;49.030;8.714;2023-03-23T04:20:53;1.43;;;1.30;;
7531;SDS011;3807;49.030;8.714;2023-03-23T04:23:19;1.80;;;1.30;;
7531;SDS011;3807;49.030;8.714;2023-03-23T04:25:47;2.03;;;1.30;;
7531;SDS011;3807;49.030;8.714;2023-03-23T04:28:14;2.70;;;1.50;;
7531;SDS011;3807;49.030;8.714;2023-03-23T04:30:41;3.33;;;1.50;;
7531;SDS011;3807;49.030;8.714;2023-03-23T04:33:08;3.23;;;1.27;;
7531;SDS011;3807;49.030;8.714;2023-03-23T04:35:34;2.23;;;1.40;;
7531;SDS011;3807;49.030;8.714;2023-03-23T04:37:59;2.10;;;1.47;;
7531;SDS011;3807;49.030;8.714;2023-03-23T04:40:25;2.90;;;1.20;;
7531;SDS011;3807;49.030;8.714;2023-03-23T04:42:50;2.90;;;1.53;;
7531;SDS011;3807;49.030;8.714;2023-03-23T04:45:19;2.03;;;1.50;;
7531;SDS011;3807;49.030;8.714;2023-03-23T04:47:47;3.30;;;1.37;;
7531;SDS011;3807;49.030;8.714;2023-03-23T04:50:18;3.73;;;1.27;;
7531;SDS011;3807;49.030;8.714;2023-03-23T04:52:48;2.33;;;1.40;;
7531;SDS011;3807;49.030;8.714;2023-03-23T04:55:16;1.90;;;1.50;;
7531;SDS011;3807;49.030;8.714;2023-03-23T04:57:43;3.57;;;1.50;;
7531;SDS011;3807;49.030;8.714;2023-03-23T05:00:09;3.53;;;1.57;;
7531;SDS011;3807;49.030;8.714;2023-03-23T05:02:40;1.87;;;1.20;;
7531;SDS011;3807;49.030;8.714;2023-03-23T05:05:06;1.73;;;1.20;;
7531;SDS011;3807;49.030;8.714;2023-03-23T05:07:32;1.70;;;1.40;;
7531;SDS011;3807;49.030;8.714;2023-03-23T05:09:58;2.60;;;1.20;;
7531;SDS011;3807;49.030;8.714;2023-03-23T05:12:23;6.80;;;1.57;;
7531;SDS011;3807;49.030;8.714;2023-03-23T05:14:49;4.10;;;1.77;;
7531;SDS011;3807;49.030;8.714;2023-03-23T05:17:14;1.37;;;1.03;;
7531;SDS011;3807;49.030;8.714;2023-03-23T05:19:42;3.40;;;1.70;;
7531;SDS011;3807;49.030;8.714;2023-03-23T05:22:09;3.47;;;1.40;;
7531;SDS011;3807;49.030;8.714;2023-03-23T05:24:37;1.90;;;1.33;;
7531;SDS011;3807;49.030;8.714;2023-03-23T05:27:03;3.00;;;1.37;;
7531;SDS011;3807;49.030;8.714;2023-03-23T05:29:28;2.07;;;1.30;;
7531;SDS011;3807;49.030;8.714;2023-03-23T05:31:55;3.37;;;1.60;;
7531;SDS011;3807;49.030;8.714;2023-03-23T05:34:24;2.20;;;1.43;;
7531;SDS011;3807;49.030;8.714;2023-03-23T05:36:51;24.03;;;1.50;;
7531;SDS011;3807;49.030;8.714;2023-03-23T05:39:18;2.70;;;1.40;;
7531;SDS011;3807;49.030;8.714;2023-03-23T05:41:44;1.83;;;1.30;;
7531;SDS011;3807;49.030;8.714;2023-03-23T05:44:09;2.70;;;1.53;;
7531;SDS011;3807;49.030;8.714;2023-03-23T05:46:34;2.43;;;1.57;;
7531;SDS011;3807;49.030;8.714;2023-03-23T05:49:00;1.83;;;1.47;;
7531;SDS011;3807;49.030;8.714;2023-03-23T05:51:25;2.27;;;1.57;;
7531;SDS011;3807;49.030;8.714;2023-03-23T05:53:51;2.63;;;1.40;;
7531;SDS011;3807;49.030;8.714;2023-03-23T05:56:17;3.13;;;1.30;;
7531;SDS011;3807;49.030;8.714;2023-03-23T05:58:43;3.03;;;1.90;;
7531;SDS011;3807;49.030;8.714;2023-03-23T06:01:08;4.27;;;1.67;;
7531;SDS011;3807;49.030;8.714;2023-03-23T06:03:34;2.50;;;1.40;;
7531;SDS011;3807;49.030;8.714;2023-03-23T06:06:02;3.27;;;1.73;;
7531;SDS011;3807;49.030;8.714;2023-03-23T06:08:28;3.03;;;1.70;;
7531;SDS011;3807;49.030;8.714;2023-03-23T06:10:54;3.20;;;1.77;;
7531;SDS011;3807;49.030;8.714;2023-03-23T06:13:20;1.73;;;1.50;;
7531;SDS011;3807;49.030;8.714;2023-03-23T06:15:45;1.97;;;1.57;;
7531;SDS011;3807;49.030;8.714;2023-03-23T06:18:12;3.50;;;1.93;;
7531;SDS011;3807;49.030;8.714;2023-03-23T06:20:38;4.37;;;1.80;;
7531;SDS011;3807;49.030;8.714;2023-03-23T06:23:04;8.93;;;1.97;;
7531;SDS011;3807;49.030;8.714;2023-03-23T06:25:29;5.30;;;2.07;;
7531;SDS011;3807;49.030;8.714;2023-03-23T06:27:55;2.70;;;1.90;;
7531;SDS011;3807;49.030;8.714;2023-03-23T06:30:21;5.00;;;1.80;;
7531;SDS011;3807;49.030;8.714;2023-03-23T06:32:46;3.77;;;2.00;;
7531;SDS011;3807;49.030;8.714;2023-03-23T06:35:13;2.90;;;2.00;;
7531;SDS011;3807;49.030;8.714;2023-03-23T06:37:40;3.40;;;2.17;;
7531;SDS011;3807;49.030;8.714;2023-03-23T06:40:06;1.87;;;1.57;;
7531;SDS011;3807;49.030;8.714;2023-03-23T06:42:32;4.17;;;2.00;;
7531;SDS011;3807;49.030;8.714;2023-03-23T06:44:58;2.70;;;1.63;;
7531;SDS011;3807;49.030;8.714;2023-03-23T06:47:25;2.80;;;1.67;;
7531;SDS011;3807;49.030;8.714;2023-03-23T06:49:57;5.43;;;2.10;;
7531;SDS011;3807;49.030;8.714;2023-03-23T06:52:23;3.07;;;2.20;;
7531;SDS011;3807;49.030;8.714;2023-03-23T06:54:49;5.30;;;1.93;;
7531;SDS011;3807;49.030;8.714;2023-03-23T06:57:15;2.40;;;1.67;;
7531;SDS011;3807;49.030;8.714;2023-03-23T06:59:42;2.40;;;1.87;;
7531;SDS011;3807;49.030;8.714;2023-03-23T07:02:11;2.13;;;1.60;;
7531;SDS011;3807;49.030;8.714;2023-03-23T07:04:39;2.63;;;1.90;;
7531;SDS011;3807;49.030;8.714;2023-03-23T07:07:05;3.13;;;1.63;;
7531;SDS011;3807;49.030;8.714;2023-03-23T07:09:32;2.97;;;1.80;;
7531;SDS011;3807;49.030;8.714;2023-03-23T07:11:58;2.37;;;1.70;;
7531;SDS011;3807;49.030;8.714;2023-03-23T07:14:23;4.20;;;1.77;;
7531;SDS011;3807;49.030;8.714;2023-03-23T07:16:49;4.17;;;2.43;;
7531;SDS011;3807;49.030;8.714;2023-03-23T07:19:15;2.90;;;1.63;;
7531;SDS011;3807;49.030;8.714;2023-03-23T07:21:40;3.23;;;1.53;;
7531;SDS011;3807;49.030;8.714;2023-03-23T07:24:06;1.63;;;1.43;;
7531;SDS011;3807;49.030;8.714;2023-03-23T07:26:36;3.70;;;1.93;;
7531;SDS011;3807;49.030;8.714;2023-03-23T07:29:02;3.73;;;1.77;;
7531;SDS011;3807;49.030;8.714;2023-03-23T07:31:28;6.47;;;1.90;;
7531;SDS011;3807;49.030;8.714;2023-03-23T07:33:53;5.37;;;1.93;;
7531;SDS011;3807;49.030;8.714;2023-03-23T07:36:18;2.17;;;1.57;;
7531;SDS011;3807;49.030;8.714;2023-03-23T07:38:44;5.10;;;1.77;;
7531;SDS011;3807;49.030;8.714;2023-03-23T07:41:09;1.87;;;1.70;;
7531;SDS011;3807;49.030;8.714;2023-03-23T07:43:35;3.43;;;2.03;;
7531;SDS011;3807;49.030;8.714;2023-03-23T07:46:00;2.30;;;1.73;;
7531;SDS011;3807;49.030;8.714;2023-03-23T07:48:26;2.60;;;1.60;;
7531;SDS011;3807;49.030;8.714;2023-03-23T07:50:51;1.80;;;1.50;;
7531;SDS011;3807;49.030;8.714;2023-03-23T07:53:17;4.77;;;1.93;;
7531;SDS011;3807;49.030;8.714;2023-03-23T07:55:42;2.10;;;1.80;;
7531;SDS011;3807;49.030;8.714;2023-03-23T07:58:08;2.20;;;1.90;;
7531;SDS011;3807;49.030;8.714;2023-03-23T08:00:33;3.03;;;2.07;;
7531;SDS011;3807;49.030;8.714;2023-03-23T08:02:59;2.63;;;1.97;;
7531;SDS011;3807;49.030;8.714;2023-03-23T08:05:25;2.13;;;1.70;;
7531;SDS011;3807;49.030;8.714;2023-03-23T08:07:53;3.07;;;1.70;;
7531;SDS011;3807;49.030;8.714;2023-03-23T08:10:20;2.77;;;2.33;;
7531;SDS011;3807;49.030;8.714;2023-03-23T08:12:49;3.83;;;2.03;;
7531;SDS011;3807;49.030;8.714;2023-03-23T08:15:17;3.40;;;1.83;;
7531;SDS011;3807;49.030;8.714;2023-03-23T08:17:43;2.73;;;2.03;;
7531;SDS011;3807;49.030;8.714;2023-03-23T08:20:09;5.23;;;2.27;;
7531;SDS011;3807;49.030;8.714;2023-03-23T08:22:38;3.07;;;2.10;;
7531;SDS011;3807;49.030;8.714;2023-03-23T08:25:08;3.83;;;2.30;;
7531;SDS011;3807;49.030;8.714;2023-03-23T08:27:35;3.67;;;2.30;;
7531;SDS011;3807;49.030;8.714;2023-03-23T08:30:01;3.67;;;1.80;;
7531;SDS011;3807;49.030;8.714;2023-03-23T08:32:27;2.90;;;1.73;;
7531;SDS011;3807;49.030;8.714;2023-03-23T08:34:53;3.20;;;1.70;;
7531;SDS011;3807;49.030;8.714;2023-03-23T08:37:18;3.27;;;1.90;;
7531;SDS011;3807;49.030;8.714;2023-03-23T08:39:44;2.97;;;1.90;;
7531;SDS011;3807;49.030;8.714;2023-03-23T08:42:10;3.87;;;2.00;;
7531;SDS011;3807;49.030;8.714;2023-03-23T08:44:36;4.87;;;2.10;;
7531;SDS011;3807;49.030;8.714;2023-03-23T08:47:01;2.97;;;2.00;;
7531;SDS011;3807;49.030;8.714;2023-03-23T08:49:28;2.93;;;2.00;;
7531;SDS011;3807;49.030;8.714;2023-03-23T08:51:56;3.70;;;2.17;;
7531;SDS011;3807;49.030;8.714;2023-03-23T08:54:21;2.37;;;2.10;;
7531;SDS011;3807;49.030;8.714;2023-03-23T08:56:46;2.50;;;1.87;;
7531;SDS011;3807;49.030;8.714;2023-03-23T08:59:12;2.37;;;1.80;;
7531;SDS011;3807;49.030;8.714;2023-03-23T09:01:37;2.37;;;1.90;;
7531;SDS011;3807;49.030;8.714;2023-03-23T09:04:03;3.80;;;2.20;;
7531;SDS011;3807;49.030;8.714;2023-03-23T09:06:29;5.43;;;3.10;;
7531;SDS011;3807;49.030;8.714;2023-03-23T09:08:55;5.77;;;2.70;;
7531;SDS011;3807;49.030;8.714;2023-03-23T09:11:21;7.50;;;3.00;;
7531;SDS011;3807;49.030;8.714;2023-03-23T09:13:47;5.93;;;2.70;;
7531;SDS011;3807;49.030;8.714;2023-03-23T09:16:12;6.90;;;3.77;;
7531;SDS011;3807;49.030;8.714;2023-03-23T09:18:37;16.30;;;6.40;;
7531;SDS011;3807;49.030;8.714;2023-03-23T09:21:03;12.20;;;4.57;;
7531;SDS011;3807;49.030;8.714;2023-03-23T09:23:29;5.90;;;3.27;;
7531;SDS011;3807;49.030;8.714;2023-03-23T09:25:55;11.63;;;5.37;;
7531;SDS011;3807;49.030;8.714;2023-03-23T09:28:20;2.60;;;1.90;;
7531;SDS011;3807;49.030;8.714;2023-03-23T09:30:46;2.97;;;2.37;;
7531;SDS011;3807;49.030;8.714;2023-03-23T09:33:12;4.30;;;2.43;;
7531;SDS011;3807;49.030;8.714;2023-03-23T09:35:39;2.80;;;2.13;;
7531;SDS011;3807;49.030;8.714;2023-03-23T09:38:06;2.60;;;1.70;;
7531;SDS011;3807;49.030;8.714;2023-03-23T09:40:43;2.70;;;2.20;;
7531;SDS011;3807;49.030;8.714;2023-03-23T09:48:41;3.97;;;2.07;;
7531;SDS011;3807;49.030;8.714;2023-03-23T09:51:24;3.43;;;1.73;;
7531;SDS011;3807;49.030;8.714;2023-03-23T09:57:01;3.00;;;1.53;;
7531;SDS011;3807;49.030;8.714;2023-03-23T09:59:36;3.43;;;1.67;;
7531;SDS011;3807;49.030;8.714;2023-03-23T10:02:19;3.73;;;1.97;;
7531;SDS011;3807;49.030;8.714;2023-03-23T10:04:52;1.80;;;1.43;;
7531;SDS011;3807;49.030;8.714;2023-03-23T10:07:21;2.17;;;1.77;;
7531;SDS011;3807;49.030;8.714;2023-03-23T10:09:52;1.73;;;1.50;;
7531;SDS011;3807;49.030;8.714;2023-03-23T10:12:21;1.63;;;1.33;;
7531;SDS011;3807;49.030;8.714;2023-03-23T10:15:17;2.00;;;1.57;;
7531;SDS011;3807;49.030;8.714;2023-03-23T10:18:29;5.50;;;1.60;;
7531;SDS011;3807;49.030;8.714;2023-03-23T10:20:58;2.43;;;1.50;;
7531;SDS011;3807;49.030;8.714;2023-03-23T10:23:34;1.60;;;1.50;;
7531;SDS011;3807;49.030;8.714;2023-03-23T10:26:28;2.13;;;1.70;;
7531;SDS011;3807;49.030;8.714;2023-03-23T10:31:32;3.00;;;1.20;;
7531;SDS011;3807;49.030;8.714;2023-03-23T10:34:10;3.50;;;1.50;;
7531;SDS011;3807;49.030;8.714;2023-03-23T10:36:48;2.33;;;1.73;;
7531;SDS011;3807;49.030;8.714;2023-03-23T10:39:19;1.77;;;1.47;;
7531;SDS011;3807;49.030;8.714;2023-03-23T10:41:47;3.37;;;1.90;;
7531;SDS011;3807;49.030;8.714;2023-03-23T10:44:17;2.90;;;1.67;;
7531;SDS011;3807;49.030;8.714;2023-03-23T10:46:46;1.93;;;1.37;;
7531;SDS011;3807;49.030;8.714;2023-03-23T10:49:37;3.63;;;1.90;;
7531;SDS011;3807;49.030;8.714;2023-03-23T10:52:48;3.10;;;1.60;;
7531;SDS011;3807;49.030;8.714;2023-03-23T10:55:11;2.17;;;1.50;;
7531;SDS011;3807;49.030;8.714;2023-03-23T10:57:45;1.80;;;1.40;;
7531;SDS011;3807;49.030;8.714;2023-03-23T11:00:23;1.73;;;1.47;;
7531;SDS011;3807;49.030;8.714;2023-03-23T11:08:25;2.83;;;1.70;;
7531;SDS011;3807;49.030;8.714;2023-03-23T11:13:30;2.37;;;1.40;;
7531;SDS011;3807;49.030;8.714;2023-03-23T11:15:57;1.67;;;1.43;;
7531;SDS011;3807;49.030;8.714;2023-03-23T11:21:02;2.87;;;1.70;;
7531;SDS011;3807;49.030;8.714;2023-03-23T11:23:32;2.73;;;1.53;;
7531;SDS011;3807;49.030;8.714;2023-03-23T11:28:55;1.53;;;1.37;;
7531;SDS011;3807;49.030;8.714;2023-03-23T11:31:28;3.20;;;2.00;;
7531;SDS011;3807;49.030;8.714;2023-03-23T11:33:58;1.77;;;1.40;;
7531;SDS011;3807;49.030;8.714;2023-03-23T11:39:00;2.57;;;1.50;;
7531;SDS011;3807;49.030;8.714;2023-03-23T11:41:32;2.77;;;2.07;;
7531;SDS011;3807;49.030;8.714;2023-03-23T11:44:02;1.90;;;1.27;;
7531;SDS011;3807;49.030;8.714;2023-03-23T11:46:35;2.53;;;2.10;;
7531;SDS011;3807;49.030;8.714;2023-03-23T11:49:36;3.83;;;1.90;;
7531;SDS011;3807;49.030;8.714;2023-03-23T11:52:32;2.20;;;1.80;;
7531;SDS011;3807;49.030;8.714;2023-03-23T11:55:23;2.93;;;1.80;;
7531;SDS011;3807;49.030;8.714;2023-03-23T11:57:52;3.70;;;2.00;;
7531;SDS011;3807;49.030;8.714;2023-03-23T12:00:20;5.23;;;1.97;;
7531;SDS011;3807;49.030;8.714;2023-03-23T12:02:52;2.30;;;1.77;;
7531;SDS011;3807;49.030;8.714;2023-03-23T12:05:51;3.27;;;1.90;;
7531;SDS011;3807;49.030;8.714;2023-03-23T12:11:42;2.57;;;2.03;;
7531;SDS011;3807;49.030;8.714;2023-03-23T12:19:42;2.10;;;1.40;;
7531;SDS011;3807;49.030;8.714;2023-03-23T12:25:30;2.67;;;1.90;;
7531;SDS011;3807;49.030;8.714;2023-03-23T12:31:11;3.17;;;2.20;;
7531;SDS011;3807;49.030;8.714;2023-03-23T12:36:44;2.77;;;1.90;;
7531;SDS011;3807;49.030;8.714;2023-03-23T12:44:28;3.57;;;2.10;;
7531;SDS011;3807;49.030;8.714;2023-03-23T12:52:35;2.47;;;2.00;;
7531;SDS011;3807;49.030;8.714;2023-03-23T12:57:48;3.53;;;2.23;;
7531;SDS011;3807;49.030;8.714;2023-03-23T13:00:28;4.70;;;2.00;;
7531;SDS011;3807;49.030;8.714;2023-03-23T13:03:10;3.30;;;2.10;;
7531;SDS011;3807;49.030;8.714;2023-03-23T13:05:47;4.27;;;2.33;;
7531;SDS011;3807;49.030;8.714;2023-03-23T13:08:25;4.70;;;1.80;;
7531;SDS011;3807;49.030;8.714;2023-03-23T13:10:56;3.47;;;2.00;;
7531;SDS011;3807;49.030;8.714;2023-03-23T13:16:14;5.90;;;2.50;;
7531;SDS011;3807;49.030;8.714;2023-03-23T13:19:11;4.23;;;2.80;;
7531;SDS011;3807;49.030;8.714;2023-03-23T13:21:47;2.57;;;2.23;;
7531;SDS011;3807;49.030;8.714;2023-03-23T13:24:50;2.77;;;2.23;;
7531;SDS011;3807;49.030;8.714;2023-03-23T13:27:22;3.93;;;2.33;;
7531;SDS011;3807;49.030;8.714;2023-03-23T13:29:57;3.53;;;2.10;;
7531;SDS011;3807;49.030;8.714;2023-03-23T13:32:31;5.03;;;2.23;;
7531;SDS011;3807;49.030;8.714;2023-03-23T13:35:03;2.97;;;2.03;;
7531;SDS011;3807;49.030;8.714;2023-03-23T13:37:40;3.57;;;2.50;;
7531;SDS011;3807;49.030;8.714;2023-03-23T13:42:53;3.20;;;2.07;;
7531;SDS011;3807;49.030;8.714;2023-03-23T13:45:35;5.80;;;2.40;;
7531;SDS011;3807;49.030;8.714;2023-03-23T13:50:59;3.87;;;2.40;;
7531;SDS011;3807;49.030;8.714;2023-03-23T13:53:25;3.87;;;2.10;;
7531;SDS011;3807;49.030;8.714;2023-03-23T13:59:12;2.67;;;2.00;;
7531;SDS011;3807;49.030;8.714;2023-03-23T14:01:40;5.83;;;2.60;;
7531;SDS011;3807;49.030;8.714;2023-03-23T14:04:16;4.27;;;2.37;;
7531;SDS011;3807;49.030;8.714;2023-03-23T14:06:43;2.93;;;2.20;;
7531;SDS011;3807;49.030;8.714;2023-03-23T14:09:16;7.80;;;2.70;;
7531;SDS011;3807;49.030;8.714;2023-03-23T14:11:59;5.23;;;2.70;;
7531;SDS011;3807;49.030;8.714;2023-03-23T14:14:33;7.53;;;3.33;;
7531;SDS011;3807;49.030;8.714;2023-03-23T14:17:26;6.80;;;3.73;;
7531;SDS011;3807;49.030;8.714;2023-03-23T14:19:52;11.80;;;3.27;;
7531;SDS011;3807;49.030;8.714;2023-03-23T14:24:51;4.57;;;2.70;;
7531;SDS011;3807;49.030;8.714;2023-03-23T14:27:23;9.17;;;3.30;;
7531;SDS011;3807;49.030;8.714;2023-03-23T14:29:59;4.70;;;3.20;;
7531;SDS011;3807;49.030;8.714;2023-03-23T14:32:25;5.53;;;3.27;;
7531;SDS011;3807;49.030;8.714;2023-03-23T14:34:53;4.00;;;2.47;;
7531;SDS011;3807;49.030;8.714;2023-03-23T14:37:20;4.77;;;2.63;;
7531;SDS011;3807;49.030;8.714;2023-03-23T14:39:47;8.07;;;4.93;;
7531;SDS011;3807;49.030;8.714;2023-03-23T14:42:15;4.93;;;2.53;;
7531;SDS011;3807;49.030;8.714;2023-03-23T14:44:49;3.67;;;2.57;;
7531;SDS011;3807;49.030;8.714;2023-03-23T14:49:53;6.57;;;2.80;;
7531;SDS011;3807;49.030;8.714;2023-03-23T14:52:21;8.77;;;3.60;;
7531;SDS011;3807;49.030;8.714;2023-03-23T14:54:47;6.80;;;3.13;;
7531;SDS011;3807;49.030;8.714;2023-03-23T14:59:44;4.13;;;2.73;;
7531;SDS011;3807;49.030;8.714;2023-03-23T15:02:11;7.10;;;3.70;;
7531;SDS011;3807;49.030;8.714;2023-03-23T15:04:41;4.20;;;2.90;;
7531;SDS011;3807;49.030;8.714;2023-03-23T15:07:09;3.67;;;2.60;;
7531;SDS011;3807;49.030;8.714;2023-03-23T15:09:39;3.10;;;2.60;;
7531;SDS011;3807;49.030;8.714;2023-03-23T15:12:11;4.90;;;2.60;;
7531;SDS011;3807;49.030;8.714;2023-03-23T15:14:57;3.73;;;2.40;;
7531;SDS011;3807;49.030;8.714;2023-03-23T15:17:26;3.67;;;2.37;;
7531;SDS011;3807;49.030;8.714;2023-03-23T15:19:54;3.83;;;2.80;;
7531;SDS011;3807;49.030;8.714;2023-03-23T15:22:27;3.97;;;2.40;;
7531;SDS011;3807;49.030;8.714;2023-03-23T15:27:41;5.10;;;2.60;;
7531;SDS011;3807;49.030;8.714;2023-03-23T15:30:14;3.93;;;2.60;;
7531;SDS011;3807;49.030;8.714;2023-03-23T15:33:03;4.87;;;2.80;;
7531;SDS011;3807;49.030;8.714;2023-03-23T15:35:38;7.30;;;2.90;;
7531;SDS011;3807;49.030;8.714;2023-03-23T15:38:13;5.50;;;2.87;;
7531;SDS011;3807;49.030;8.714;2023-03-23T15:40:51;6.57;;;3.07;;
7531;SDS011;3807;49.030;8.714;2023-03-23T15:51:26;5.50;;;2.90;;
7531;SDS011;3807;49.030;8.714;2023-03-23T15:53:54;4.47;;;3.03;;
7531;SDS011;3807;49.030;8.714;2023-03-23T15:56:20;4.07;;;2.90;;
7531;SDS011;3807;49.030;8.714;2023-03-23T15:58:47;8.20;;;3.00;;
7531;SDS011;3807;49.030;8.714;2023-03-23T16:01:19;7.43;;;4.13;;
7531;SDS011;3807;49.030;8.714;2023-03-23T16:03:55;19.23;;;9.07;;
7531;SDS011;3807;49.030;8.714;2023-03-23T16:06:24;11.27;;;6.57;;
7531;SDS011;3807;49.030;8.714;2023-03-23T16:08:52;9.80;;;4.87;;
7531;SDS011;3807;49.030;8.714;2023-03-23T16:11:18;6.47;;;3.50;;
7531;SDS011;3807;49.030;8.714;2023-03-23T16:13:44;6.70;;;3.93;;
7531;SDS011;3807;49.030;8.714;2023-03-23T16:16:13;5.80;;;3.37;;
7531;SDS011;3807;49.030;8.714;2023-03-23T16:18:46;4.70;;;3.00;;
7531;SDS011;3807;49.030;8.714;2023-03-23T16:21:11;6.07;;;3.17;;
7531;SDS011;3807;49.030;8.714;2023-03-23T16:23:37;4.67;;;3.27;;
7531;SDS011;3807;49.030;8.714;2023-03-23T16:26:02;9.07;;;3.77;;
7531;SDS011;3807;49.030;8.714;2023-03-23T16:28:28;6.20;;;4.50;;
7531;SDS011;3807;49.030;8.714;2023-03-23T16:30:53;7.93;;;3.60;;
7531;SDS011;3807;49.030;8.714;2023-03-23T16:33:18;7.17;;;3.70;;
7531;SDS011;3807;49.030;8.714;2023-03-23T16:35:44;4.20;;;3.17;;
7531;SDS011;3807;49.030;8.714;2023-03-23T16:38:11;5.53;;;2.77;;
7531;SDS011;3807;49.030;8.714;2023-03-23T16:40:40;5.20;;;3.00;;
7531;SDS011;3807;49.030;8.714;2023-03-23T16:43:08;4.10;;;2.60;;
7531;SDS011;3807;49.030;8.714;2023-03-23T16:45:34;5.50;;;3.30;;
7531;SDS011;3807;49.030;8.714;2023-03-23T16:48:00;8.53;;;3.90;;
7531;SDS011;3807;49.030;8.714;2023-03-23T16:50:29;4.83;;;4.00;;
7531;SDS011;3807;49.030;8.714;2023-03-23T16:52:54;7.50;;;3.50;;
7531;SDS011;3807;49.030;8.714;2023-03-23T16:55:20;4.83;;;3.03;;
7531;SDS011;3807;49.030;8.714;2023-03-23T16:57:45;6.33;;;3.23;;
7531;SDS011;3807;49.030;8.714;2023-03-23T17:00:14;6.17;;;3.67;;
7531;SDS011;3807;49.030;8.714;2023-03-23T17:02:44;5.30;;;3.07;;
7531;SDS011;3807;49.030;8.714;2023-03-23T17:05:11;11.30;;;3.43;;
7531;SDS011;3807;49.030;8.714;2023-03-23T17:07:37;5.13;;;3.60;;
7531;SDS011;3807;49.030;8.714;2023-03-23T17:10:03;10.33;;;3.93;;
7531;SDS011;3807;49.030;8.714;2023-03-23T17:12:30;6.67;;;4.70;;
7531;SDS011;3807;49.030;8.714;2023-03-23T17:14:55;9.10;;;5.40;;
7531;SDS011;3807;49.030;8.714;2023-03-23T17:17:21;9.57;;;5.10;;
7531;SDS011;3807;49.030;8.714;2023-03-23T17:19:48;7.97;;;4.87;;
7531;SDS011;3807;49.030;8.714;2023-03-23T17:22:13;7.03;;;3.57;;
7531;SDS011;3807;49.030;8.714;2023-03-23T17:24:39;7.40;;;3.73;;
7531;SDS011;3807;49.030;8.714;2023-03-23T17:27:04;6.60;;;4.20;;